aviador You're here:

KFRM Decoded Metar

FAIRMONT MUNI in MN, USA
Report Time2017-06-29 06:56:00
UTC Time2017-06-29 07:11:29
Flight Rules vfr VFR
Wind300° at 06 kt
W.Decomp.*RWY 31: 5.8 kt HW 1.5 kt LCW
RWY 02: 0.6 kt HW 6 kt LCW
W.Rank300° ranks 9
Current wind is below 300° avg. (11.4)
Visibility9999 m
Phenomena:N/A
Clouds:N/A
Expected CloudBase > 800 ft AGL from Temp-Dew spread
CeilingNone
Temp18°C (ISA +5)
Dew Point16°C (88% RH)
AAT17.8°C
QNH1006 hPa
Density Alt2,267 ft
Elevation1,161 ft
Report Wrong Elevation
Raw Report
METAR KFRM 290656Z AUTO 30006KT 10SM CLR 18/16 A2971 RMK AO2 SLP057
T01830161=

Extra information for KFRM:More info

Metar Taf Metar & Taf Last 4 Metars F.Rules Stats Wind Profile Meteogram Temp Stats Airport Information Weather charts Add Link Nearby VenuesMetar ALERT Operation Metar Decoded Social comments

AIRNAV info for KFRM